Time;durP1;ratioP1;P1;durP2;ratioP2;P2;SDS_P1;SDS_P2;PMS_P1;PMS_P2;Temp;Humidity;BMP_temperature;BMP_pressure;BME280_temperature;BME280_humidity;BME280_pressure;Samples;Min_cycle;Max_cycle;Signal;HPM_P1;HPM_P2
2022/03/20 00:00:01;;;;;;;32.20;6.25;;;;;;;6.74;100.00;103349.94;5076853;28;20136;-91
2022/03/20 00:02:30;;;;;;;23.65;5.13;;;;;;;6.72;100.00;103358.56;5075329;28;20131;-91
2022/03/20 00:05:02;;;;;;;20.38;4.93;;;;;;;6.60;100.00;103327.94;5075550;28;20135;-92
2022/03/20 00:07:31;;;;;;;24.40;4.43;;;;;;;7.10;100.00;103367.16;5075852;28;20139;-92
2022/03/20 00:09:59;;;;;;;25.92;4.68;;;;;;;6.89;100.00;103335.47;5075655;28;20080;-92
2022/03/20 00:12:26;;;;;;;25.25;4.03;;;;;;;7.13;100.00;103392.38;5075832;28;20131;-91
2022/03/20 00:14:53;;;;;;;24.75;4.85;;;;;;;6.92;100.00;103345.94;5076932;28;20052;-92
2022/03/20 00:17:22;;;;;;;26.30;3.97;;;;;;;7.02;100.00;103364.38;5076140;28;20048;-92
2022/03/20 00:19:50;;;;;;;28.33;5.43;;;;;;;6.99;100.00;103350.41;5075655;28;20383;-92
2022/03/20 00:22:17;;;;;;;24.95;5.60;;;;;;;6.70;100.00;103309.06;5075856;28;20063;-92
2022/03/20 00:24:44;;;;;;;27.67;5.40;;;;;;;6.88;100.00;103344.13;5075991;28;20116;-92
2022/03/20 00:27:12;;;;;;;25.38;4.68;;;;;;;7.12;100.00;103380.19;5075677;28;20055;-92
2022/03/20 00:29:39;;;;;;;24.25;4.68;;;;;;;6.81;100.00;103337.94;5075550;28;20058;-89
2022/03/20 00:32:09;;;;;;;29.70;5.30;;;;;;;6.57;100.00;103333.09;5075676;28;20049;-91
2022/03/20 00:34:36;;;;;;;29.60;5.28;;;;;;;6.59;100.00;103308.00;5075610;28;20043;-92
2022/03/20 00:37:03;;;;;;;26.75;4.47;;;;;;;6.95;100.00;103323.44;5075448;28;20055;-92
2022/03/20 00:39:30;;;;;;;32.13;6.53;;;;;;;6.81;100.00;103315.34;5075281;28;20138;-92
2022/03/20 00:41:57;;;;;;;34.90;5.55;;;;;;;6.82;100.00;103330.16;5074112;28;20040;-91
2022/03/20 00:44:24;;;;;;;22.65;4.88;;;;;;;7.19;100.00;103338.66;5074399;28;20075;-91
2022/03/20 00:46:51;;;;;;;22.50;5.13;;;;;;;7.12;100.00;103330.69;5074995;28;20055;-91
2022/03/20 00:49:18;;;;;;;23.75;5.38;;;;;;;6.88;100.00;103341.53;5075255;28;20079;-92
2022/03/20 00:51:44;;;;;;;29.23;4.43;;;;;;;7.10;100.00;103327.16;5074737;28;20466;-92
2022/03/20 00:54:12;;;;;;;35.40;6.20;;;;;;;6.91;100.00;103347.69;5075340;28;20052;-91
2022/03/20 00:56:39;;;;;;;20.73;4.53;;;;;;;7.10;100.00;103341.09;5074980;28;20049;-92
2022/03/20 00:59:06;;;;;;;32.22;6.38;;;;;;;6.67;100.00;103293.38;5074605;28;20056;-91
2022/03/20 01:01:33;;;;;;;34.85;5.25;;;;;;;6.84;100.00;103324.97;5070965;28;20045;-92
2022/03/20 01:03:59;;;;;;;30.60;6.90;;;;;;;6.73;100.00;103310.84;5055512;28;20384;-92
2022/03/20 01:06:26;;;;;;;30.38;5.60;;;;;;;6.60;100.00;103271.53;5054312;28;20052;-89
2022/03/20 01:08:53;;;;;;;30.80;5.60;;;;;;;6.67;100.00;103240.44;5053303;28;20104;-89
2022/03/20 01:11:20;;;;;;;33.70;6.15;;;;;;;6.61;100.00;103260.31;5053822;28;20372;-91
2022/03/20 01:13:47;;;;;;;31.58;5.15;;;;;;;6.65;100.00;103262.09;5072043;28;20127;-91
2022/03/20 01:16:14;;;;;;;25.95;4.90;;;;;;;6.81;100.00;103257.19;5067592;28;20133;-92
2022/03/20 01:18:41;;;;;;;31.85;5.75;;;;;;;6.74;100.00;103252.72;5054053;28;20055;-92
2022/03/20 01:21:08;;;;;;;31.95;6.05;;;;;;;6.72;100.00;103265.72;5053166;28;20135;-91
2022/03/20 01:23:34;;;;;;;22.65;5.22;;;;;;;6.90;100.00;103278.19;5071926;28;20066;-90
2022/03/20 01:26:01;;;;;;;30.13;5.03;;;;;;;6.84;100.00;103275.50;5072722;28;20429;-90
2022/03/20 01:28:28;;;;;;;33.15;5.72;;;;;;;6.64;100.00;103270.78;5072794;28;20156;-89
2022/03/20 01:30:55;;;;;;;33.42;5.05;;;;;;;6.80;100.00;103263.28;5072079;28;20044;-92
2022/03/20 01:33:22;;;;;;;30.38;6.03;;;;;;;6.54;100.00;103250.63;5072288;28;20110;-89
2022/03/20 01:35:49;;;;;;;32.08;5.80;;;;;;;6.73;100.00;103296.13;5071305;28;20044;-90
2022/03/20 01:38:20;;;;;;;23.75;5.22;;;;;;;6.76;100.00;103243.22;5072699;28;20056;-91
2022/03/20 01:40:47;;;;;;;31.23;4.65;;;;;;;6.90;100.00;103246.06;5071736;28;20075;-91
2022/03/20 01:43:15;;;;;;;23.88;5.43;;;;;;;6.99;100.00;103274.88;5073820;28;20048;-90
2022/03/20 01:45:43;;;;;;;24.73;4.63;;;;;;;6.93;100.00;103267.84;5074295;28;20159;-92
2022/03/20 01:48:10;;;;;;;30.17;4.88;;;;;;;6.57;100.00;103221.16;5073629;28;20087;-92
2022/03/20 01:50:37;;;;;;;25.98;5.60;;;;;;;6.62;100.00;103210.00;5073802;28;20051;-91
2022/03/20 01:53:07;;;;;;;39.08;5.70;;;;;;;6.51;100.00;103214.09;5074009;28;20060;-92
2022/03/20 01:55:34;;;;;;;32.05;5.88;;;;;;;6.62;100.00;103225.63;5074426;28;20131;-92
2022/03/20 01:58:01;;;;;;;33.88;5.68;;;;;;;6.62;100.00;103196.09;5074349;28;20063;-92
2022/03/20 02:00:29;;;;;;;31.15;5.68;;;;;;;6.65;100.00;103243.00;5071780;28;20076;-91
2022/03/20 02:02:56;;;;;;;24.42;5.70;;;;;;;6.70;100.00;103219.69;5071042;28;20826;-90
2022/03/20 02:05:23;;;;;;;38.22;7.20;;;;;;;6.76;100.00;103223.25;5072408;28;20135;-90
2022/03/20 02:07:50;;;;;;;23.73;4.50;;;;;;;6.81;100.00;103198.16;5072079;28;20049;-91
2022/03/20 02:10:18;;;;;;;27.98;6.07;;;;;;;6.66;100.00;103229.16;5068318;28;20069;-91
2022/03/20 02:12:44;;;;;;;24.67;4.72;;;;;;;6.93;100.00;103231.38;5067519;28;20055;-91
2022/03/20 02:15:14;;;;;;;32.72;4.82;;;;;;;6.81;100.00;103241.56;5073499;28;20045;-91
2022/03/20 02:17:44;;;;;;;33.65;6.90;;;;;;;6.82;100.00;103232.91;5073323;28;20135;-91
2022/03/20 02:20:12;;;;;;;28.55;4.53;;;;;;;6.83;100.00;103242.47;5072961;28;20076;-91
2022/03/20 02:22:44;;;;;;;25.45;4.65;;;;;;;6.66;100.00;103226.56;5068877;28;20074;-90
2022/03/20 02:25:14;;;;;;;31.50;4.93;;;;;;;6.35;100.00;103173.91;5052271;28;20094;-89
2022/03/20 02:27:41;;;;;;;23.58;5.78;;;;;;;6.52;100.00;103210.69;5067531;28;20080;-91
2022/03/20 02:30:14;;;;;;;39.40;7.22;;;;;;;6.51;100.00;103211.50;5074291;28;20079;-90
2022/03/20 02:32:51;;;;;;;29.42;5.05;;;;;;;6.69;100.00;103208.38;5072604;28;20132;-91
2022/03/20 02:35:19;;;;;;;39.80;5.60;;;;;;;6.83;100.00;103238.16;5072718;28;20455;-90
2022/03/20 02:37:50;;;;;;;22.77;5.65;;;;;;;6.73;100.00;103212.81;5072791;28;20045;-92
2022/03/20 02:40:19;;;;;;;21.08;4.35;;;;;;;7.12;100.00;103229.97;5072706;28;20058;-91
2022/03/20 02:42:51;;;;;;;25.77;5.03;;;;;;;6.84;100.00;103239.03;5072063;28;20050;-91
2022/03/20 02:45:21;;;;;;;24.77;5.18;;;;;;;6.87;100.00;103205.25;5072641;28;20052;-90
2022/03/20 02:47:50;;;;;;;28.45;6.00;;;;;;;6.69;100.00;103186.66;5072612;28;20048;-91
2022/03/20 02:50:17;;;;;;;29.20;5.60;;;;;;;6.29;100.00;103153.00;5073331;28;20470;-91
2022/03/20 02:52:47;;;;;;;27.92;5.65;;;;;;;6.62;100.00;103211.72;5075840;28;20048;-91
2022/03/20 02:55:18;;;;;;;32.20;5.40;;;;;;;6.65;100.00;103204.81;5078158;28;20049;-91
2022/03/20 02:57:47;;;;;;;25.52;5.30;;;;;;;6.80;100.00;103212.06;5076874;28;20135;-88
2022/03/20 03:00:17;;;;;;;29.45;6.15;;;;;;;6.77;100.00;103196.38;5076724;28;20052;-91
2022/03/20 03:02:45;;;;;;;19.65;3.97;;;;;;;6.89;100.00;103200.94;5076420;28;20049;-91
2022/03/20 03:05:16;;;;;;;23.33;4.80;;;;;;;6.88;100.00;103204.38;5076693;28;20555;-91
2022/03/20 03:13:18;;;;;;;16.67;3.42;;;;;;;6.89;100.00;103167.06;5078182;28;20051;-91
2022/03/20 03:15:45;;;;;;;26.67;4.82;;;;;;;6.56;100.00;103144.78;5076729;28;20078;-92
2022/03/20 03:18:12;;;;;;;29.52;4.95;;;;;;;6.82;100.00;103160.00;5076832;28;20543;-92
2022/03/20 03:20:40;;;;;;;16.63;3.33;;;;;;;6.80;100.00;103146.09;5076554;28;20538;-92
2022/03/20 03:23:06;;;;;;;29.83;5.10;;;;;;;6.75;100.00;103148.59;5076403;28;20475;-91
2022/03/20 03:25:36;;;;;;;17.02;4.20;;;;;;;7.06;100.00;103175.13;5077262;28;20087;-92
2022/03/20 03:28:03;;;;;;;28.48;5.43;;;;;;;6.83;100.00;103156.53;5076552;28;20052;-92
2022/03/20 03:30:30;;;;;;;37.17;5.05;;;;;;;6.61;100.00;103121.47;5076505;28;20091;-91
2022/03/20 03:32:57;;;;;;;29.55;5.20;;;;;;;6.56;100.00;103103.16;5076144;28;20127;-92
2022/03/20 03:35:42;;;;;;;29.05;6.45;;;;;;;6.57;100.00;103111.81;5076791;28;20173;-92
2022/03/20 03:38:14;;;;;;;30.77;4.88;;;;;;;6.95;100.00;103163.69;5076320;28;20123;-92
2022/03/20 03:40:43;;;;;;;23.95;4.10;;;;;;;6.38;100.00;103082.03;5076471;28;20054;-92
2022/03/20 03:43:11;;;;;;;23.88;4.80;;;;;;;6.76;100.00;103149.47;5076068;28;20059;-91
2022/03/20 03:45:39;;;;;;;30.90;6.03;;;;;;;6.76;100.00;103155.53;5076343;28;20065;-92
2022/03/20 03:48:07;;;;;;;20.90;4.78;;;;;;;6.74;100.00;103115.59;5077367;28;20517;-92
2022/03/20 03:50:35;;;;;;;25.77;4.30;;;;;;;6.78;100.00;103142.56;5075972;28;20052;-92
2022/03/20 03:53:03;;;;;;;30.48;4.95;;;;;;;6.77;100.00;103131.28;5075662;28;20047;-92
2022/03/20 03:55:31;;;;;;;24.92;4.03;;;;;;;6.75;100.00;103086.13;5075820;28;20081;-91
2022/03/20 03:57:58;;;;;;;27.77;5.00;;;;;;;6.61;100.00;103079.81;5074966;28;20055;-91
2022/03/20 04:00:26;;;;;;;29.23;3.90;;;;;;;6.35;100.00;103088.03;5075834;28;20049;-92
2022/03/20 04:02:53;;;;;;;18.15;3.80;;;;;;;6.82;100.00;103128.75;5075185;28;20118;-92
2022/03/20 04:05:20;;;;;;;23.10;4.50;;;;;;;6.79;100.00;103105.25;5075488;28;20102;-92
2022/03/20 04:07:47;;;;;;;35.53;5.43;;;;;;;6.79;100.00;103121.75;5076855;28;20064;-92
2022/03/20 04:10:16;;;;;;;21.35;3.78;;;;;;;6.59;100.00;103079.78;5075384;28;20132;-89
2022/03/20 04:12:44;;;;;;;22.25;4.38;;;;;;;6.70;100.00;103105.13;5075489;28;20040;-92
2022/03/20 04:15:12;;;;;;;34.70;5.03;;;;;;;6.58;100.00;103091.03;5075193;28;20063;-92
2022/03/20 04:17:40;;;;;;;25.08;3.65;;;;;;;6.80;100.00;103096.63;5071922;28;20063;-92
2022/03/20 04:20:09;;;;;;;29.83;4.63;;;;;;;6.81;100.00;103088.78;5055305;28;20071;-91
2022/03/20 04:22:38;;;;;;;19.13;5.10;;;;;;;6.53;100.00;103063.19;5067402;28;20482;-92
2022/03/20 04:25:05;;;;;;;14.48;3.67;;;;;;;6.86;100.00;103103.63;5075109;28;20080;-92
2022/03/20 04:27:33;;;;;;;22.95;4.57;;;;;;;6.75;100.00;103104.34;5074975;28;20443;-91
2022/03/20 04:30:00;;;;;;;20.50;5.38;;;;;;;6.59;100.00;103063.28;5074663;28;20063;-91
2022/03/20 04:32:27;;;;;;;23.88;3.90;;;;;;;6.63;100.00;103062.47;5074085;28;20474;-91
2022/03/20 04:34:54;;;;;;;26.85;5.07;;;;;;;6.32;100.00;103056.78;5074472;28;20058;-91
2022/03/20 04:37:21;;;;;;;19.70;3.75;;;;;;;6.66;100.00;103065.16;5073921;28;20053;-92
2022/03/20 04:39:49;;;;;;;19.02;4.22;;;;;;;6.49;100.00;103038.84;5073947;28;20051;-90
2022/03/20 04:42:15;;;;;;;32.55;4.70;;;;;;;6.37;100.00;103043.81;5074460;28;20503;-91
2022/03/20 04:44:43;;;;;;;17.13;5.00;;;;;;;6.49;100.00;103017.13;5073453;28;20117;-91
2022/03/20 04:58:29;;;;;;;25.88;4.22;;;;;;;6.42;100.00;103034.38;5054863;28;20055;-91
2022/03/20 04:58:29;;;;;;;11.07;2.78;;;;;;;6.96;100.00;103085.56;5067322;28;20059;-91
2022/03/20 05:00:57;;;;;;;20.73;4.13;;;;;;;6.33;100.00;102998.66;5073306;28;20081;-91
2022/03/20 05:03:24;;;;;;;28.25;5.05;;;;;;;6.82;100.00;103059.31;5071085;28;20045;-91
2022/03/20 05:05:51;;;;;;;14.82;3.97;;;;;;;6.51;100.00;103013.69;5059119;28;20048;-91
2022/03/20 05:08:18;;;;;;;17.48;3.20;;;;;;;6.63;100.00;102997.41;5056320;28;20048;-91
2022/03/20 05:13:30;;;;;;;22.83;4.47;;;;;;;6.52;100.00;103023.28;5072175;28;20043;-91
2022/03/20 05:15:57;;;;;;;25.98;4.82;;;;;;;6.50;100.00;103005.88;5064623;28;20049;-90
2022/03/20 05:18:24;;;;;;;18.08;4.25;;;;;;;6.65;100.00;103022.59;5069519;28;20041;-91
2022/03/20 05:20:52;;;;;;;22.42;4.93;;;;;;;6.55;100.00;103022.44;5067490;28;20529;-91
2022/03/20 05:23:23;;;;;;;20.65;5.47;;;;;;;6.66;100.00;103046.91;5076813;28;20049;-91
2022/03/20 05:25:50;;;;;;;24.48;4.53;;;;;;;6.34;100.00;102995.22;5057915;28;20049;-91
2022/03/20 05:28:17;;;;;;;18.65;4.07;;;;;;;6.80;100.00;103049.75;5068654;28;20051;-90
2022/03/20 05:30:44;;;;;;;25.15;6.03;;;;;;;6.45;100.00;102998.88;5067248;28;20048;-90
2022/03/20 05:33:12;;;;;;;28.30;5.97;;;;;;;6.61;100.00;103027.75;5071835;28;20048;-90
2022/03/20 05:35:39;;;;;;;23.48;5.68;;;;;;;6.54;100.00;103005.94;5053050;28;20139;-90
2022/03/20 05:38:11;;;;;;;26.90;5.10;;;;;;;6.66;100.00;103000.06;5063265;28;20148;-87
2022/03/20 05:40:39;;;;;;;37.85;7.50;;;;;;;6.70;100.00;103019.22;5067544;28;20521;-91
2022/03/20 05:43:09;;;;;;;29.08;6.30;;;;;;;6.64;100.00;102962.72;5059168;28;20136;-90
2022/03/20 05:45:39;;;;;;;19.20;5.13;;;;;;;7.13;100.00;103015.47;5067151;28;20060;-90
2022/03/20 05:48:08;;;;;;;14.02;4.13;;;;;;;7.10;100.00;103004.13;5062442;28;20136;-90
2022/03/20 05:50:36;;;;;;;29.15;5.53;;;;;;;6.98;100.00;103015.28;5060525;28;20060;-90
2022/03/20 05:53:03;;;;;;;33.17;6.88;;;;;;;7.11;100.00;103017.16;5059599;28;20041;-91
2022/03/20 05:58:15;;;;;;;24.45;6.25;;;;;;;7.30;100.00;103013.09;5059300;28;20057;-90
2022/03/20 06:00:42;;;;;;;25.73;4.85;;;;;;;7.28;100.00;103001.78;5062907;28;20140;-89
2022/03/20 06:03:11;;;;;;;22.42;5.97;;;;;;;7.13;100.00;103007.66;5057580;28;20049;-88
2022/03/20 06:05:40;;;;;;;30.80;6.97;;;;;;;6.97;100.00;102985.72;5060983;28;20187;-89
2022/03/20 06:08:07;;;;;;;29.15;6.10;;;;;;;7.06;100.00;102982.38;5058195;28;20045;-91
2022/03/20 06:10:34;;;;;;;23.13;5.68;;;;;;;7.30;100.00;103020.91;5063464;28;20069;-91
2022/03/20 06:13:08;;;;;;;27.55;5.05;;;;;;;7.31;100.00;103011.34;5063647;28;20140;-90
2022/03/20 06:15:35;;;;;;;33.47;6.35;;;;;;;7.36;100.00;103000.13;5066654;28;20051;-90
2022/03/20 06:18:04;;;;;;;22.02;5.53;;;;;;;7.30;100.00;103022.63;5061330;28;20132;-90
2022/03/20 06:20:34;;;;;;;23.30;5.13;;;;;;;7.05;100.00;102983.25;5062871;28;20386;-90
2022/03/20 06:23:02;;;;;;;46.17;8.52;;;;;;;7.10;100.00;102988.50;5062217;28;20546;-90
2022/03/20 06:25:29;;;;;;;29.88;6.32;;;;;;;7.22;100.00;102994.75;5067007;28;20049;-90
2022/03/20 06:27:58;;;;;;;22.45;5.95;;;;;;;7.12;100.00;102977.25;5067981;28;20055;-91
2022/03/20 06:30:26;;;;;;;18.52;4.75;;;;;;;7.37;100.00;103017.50;5067034;28;20059;-90
2022/03/20 06:32:55;;;;;;;29.02;5.63;;;;;;;6.88;100.00;102948.28;5064346;28;20133;-90
2022/03/20 06:35:22;;;;;;;23.45;5.70;;;;;;;7.31;100.00;102957.50;5061396;28;20088;-89
2022/03/20 06:37:50;;;;;;;26.20;6.50;;;;;;;7.28;100.00;102970.50;5072484;28;20374;-91
2022/03/20 06:40:17;;;;;;;30.60;8.05;;;;;;;7.58;100.00;103022.09;5070372;28;20127;-90
2022/03/20 06:42:45;;;;;;;26.27;5.55;;;;;;;7.26;100.00;103021.72;5070099;28;20045;-86
2022/03/20 06:45:13;;;;;;;23.55;6.18;;;;;;;7.53;100.00;103010.75;5072278;28;20052;-87
2022/03/20 06:47:42;;;;;;;20.92;7.85;;;;;;;7.13;100.00;102984.19;5070576;28;20045;-89
2022/03/20 06:50:11;;;;;;;22.20;6.30;;;;;;;7.22;100.00;103005.19;5075560;28;20052;-89
2022/03/20 06:52:38;;;;;;;30.17;6.95;;;;;;;7.22;100.00;102993.84;5071533;28;20051;-89
2022/03/20 06:55:07;;;;;;;26.33;5.78;;;;;;;7.19;100.00;102979.06;5056062;28;20509;-88
2022/03/20 06:57:35;;;;;;;28.70;6.70;;;;;;;7.23;100.00;102990.41;5055129;28;20074;-88
2022/03/20 07:00:04;;;;;;;25.10;5.78;;;;;;;7.32;100.00;102982.69;5055420;28;20388;-89
2022/03/20 07:02:31;;;;;;;25.00;6.70;;;;;;;7.35;100.00;102994.91;5080071;28;20044;-88
2022/03/20 07:04:58;;;;;;;17.95;4.40;;;;;;;7.49;100.00;102972.47;5075288;28;20474;-89
2022/03/20 07:07:24;;;;;;;36.97;6.53;;;;;;;7.47;100.00;103001.97;5075877;28;20608;-89
2022/03/20 07:09:51;;;;;;;29.55;6.55;;;;;;;7.57;100.00;102986.44;5076721;28;20500;-89
2022/03/20 07:12:18;;;;;;;30.65;7.50;;;;;;;7.33;100.00;102988.78;5074671;28;20109;-89
2022/03/20 07:14:46;;;;;;;23.75;4.72;;;;;;;7.54;100.00;102989.06;5075245;28;20131;-89
2022/03/20 07:17:16;;;;;;;19.20;5.72;;;;;;;7.56;100.00;102981.22;5065721;28;20148;-88
2022/03/20 07:19:43;;;;;;;34.88;6.55;;;;;;;7.38;100.00;102979.28;5062142;28;20559;-89
2022/03/20 07:22:14;;;;;;;28.23;7.45;;;;;;;7.51;100.00;102989.00;5074314;28;20048;-89
2022/03/20 07:24:47;;;;;;;32.28;6.03;;;;;;;7.36;100.00;102962.75;5075043;28;20056;-89
2022/03/20 07:29:59;;;;;;;22.33;5.72;;;;;;;7.51;100.00;102962.06;5076014;28;20052;-88
2022/03/20 07:32:26;;;;;;;29.25;6.47;;;;;;;7.53;100.00;102960.34;5075760;28;20044;-87
2022/03/20 07:34:53;;;;;;;22.20;6.28;;;;;;;7.83;100.00;102971.97;5074996;28;20053;-89
2022/03/20 07:37:21;;;;;;;26.98;6.90;;;;;;;7.58;100.00;102966.50;5074065;28;20052;-88
2022/03/20 07:39:51;;;;;;;28.02;5.95;;;;;;;7.51;100.00;102957.72;5074838;28;20049;-88
2022/03/20 07:42:19;;;;;;;25.85;6.55;;;;;;;7.74;100.00;102970.13;5074070;28;20074;-88
2022/03/20 07:44:46;;;;;;;28.58;6.20;;;;;;;7.85;100.00;102968.50;5074470;28;20131;-88
2022/03/20 07:47:21;;;;;;;33.67;6.68;;;;;;;8.00;100.00;102965.13;5075896;28;20401;-88
2022/03/20 07:49:50;;;;;;;25.80;5.45;;;;;;;7.71;100.00;102957.91;5074465;28;20055;-88
2022/03/20 07:52:18;;;;;;;32.00;6.80;;;;;;;7.66;100.00;102970.03;5073767;28;20050;-88
2022/03/20 07:54:46;;;;;;;26.23;6.32;;;;;;;7.85;100.00;102970.22;5075717;28;20461;-88
2022/03/20 07:57:13;;;;;;;29.98;7.28;;;;;;;7.70;100.00;102966.63;5074423;28;20056;-88
2022/03/20 07:59:42;;;;;;;36.28;7.82;;;;;;;7.56;100.00;102934.28;5074065;28;20135;-88
2022/03/20 08:02:09;;;;;;;35.15;6.38;;;;;;;7.92;100.00;102974.66;5073576;28;20048;-88
2022/03/20 08:04:36;;;;;;;38.22;7.50;;;;;;;7.73;100.00;102950.13;5074847;28;20086;-89
2022/03/20 08:07:04;;;;;;;29.17;6.43;;;;;;;7.84;100.00;102958.03;5073899;28;20052;-88
2022/03/20 08:09:31;;;;;;;30.40;7.38;;;;;;;7.86;100.00;102941.56;5074378;28;20049;-88
2022/03/20 08:11:58;;;;;;;22.23;6.10;;;;;;;8.07;100.00;102964.31;5069867;28;20067;-88
2022/03/20 08:14:27;;;;;;;24.90;6.07;;;;;;;8.04;100.00;102964.31;5055538;28;20065;-88
2022/03/20 08:16:54;;;;;;;27.83;6.47;;;;;;;7.63;100.00;102925.66;5056089;28;20049;-89
2022/03/20 08:19:23;;;;;;;30.40;6.90;;;;;;;7.59;100.00;102931.72;5054108;28;20479;-89
2022/03/20 08:21:50;;;;;;;27.38;6.32;;;;;;;7.47;100.00;102897.72;5061240;28;20040;-89
2022/03/20 08:24:18;;;;;;;33.08;6.47;;;;;;;7.54;100.00;102879.56;5073960;28;20458;-89
2022/03/20 08:26:45;;;;;;;33.00;7.38;;;;;;;7.72;100.00;102907.53;5075217;28;20051;-90
2022/03/20 08:29:13;;;;;;;28.48;7.80;;;;;;;7.73;100.00;102900.56;5074121;28;20478;-90
2022/03/20 08:31:44;;;;;;;21.65;6.75;;;;;;;8.22;100.00;102894.88;5073276;28;20048;-90
2022/03/20 08:34:13;;;;;;;38.30;7.32;;;;;;;8.54;100.00;102921.22;5074240;28;20147;-90
2022/03/20 08:36:41;;;;;;;32.67;7.57;;;;;;;8.32;100.00;102935.81;5073262;28;20049;-91
2022/03/20 08:39:08;;;;;;;32.05;7.00;;;;;;;8.92;100.00;102947.53;5072694;28;20054;-90
2022/03/20 08:41:34;;;;;;;21.33;6.15;;;;;;;8.36;100.00;102901.06;5071971;28;20149;-90
2022/03/20 08:44:04;;;;;;;31.02;8.18;;;;;;;8.22;100.00;102908.78;5070091;28;20045;-91
2022/03/20 08:46:32;;;;;;;28.20;6.93;;;;;;;8.42;100.00;102889.78;5061972;28;20056;-90
2022/03/20 08:49:03;;;;;;;39.13;7.68;;;;;;;8.22;100.00;102881.81;5071461;28;20057;-90
2022/03/20 08:51:31;;;;;;;29.98;8.30;;;;;;;8.36;100.00;102877.56;5072864;28;20131;-91
2022/03/20 08:53:59;;;;;;;33.47;8.55;;;;;;;8.38;100.00;102925.44;5073204;28;20051;-91
2022/03/20 08:56:26;;;;;;;31.38;7.18;;;;;;;8.46;100.00;102895.03;5072693;28;20413;-89
2022/03/20 08:58:53;;;;;;;27.45;6.68;;;;;;;8.47;100.00;102856.78;5073236;28;20059;-91
2022/03/20 09:01:21;;;;;;;30.50;7.75;;;;;;;8.62;100.00;102884.69;5071919;28;20055;-90
2022/03/20 09:03:50;;;;;;;27.20;6.43;;;;;;;8.91;100.00;102922.25;5071621;28;20119;-90
2022/03/20 09:06:21;;;;;;;40.15;9.05;;;;;;;8.70;100.00;102912.59;5072449;28;20052;-90
2022/03/20 09:08:50;;;;;;;32.35;6.93;;;;;;;8.54;100.00;102856.78;5072821;28;20740;-90
2022/03/20 09:11:18;;;;;;;32.67;6.82;;;;;;;9.13;100.00;102890.97;5071249;28;20053;-90
2022/03/20 09:13:45;;;;;;;28.35;7.68;;;;;;;8.79;100.00;102916.13;5072099;28;20040;-92
2022/03/20 09:19:03;;;;;;;27.83;6.95;;;;;;;8.62;100.00;102911.66;5053657;28;20434;-91
2022/03/20 09:21:33;;;;;;;29.65;7.22;;;;;;;8.27;100.00;102921.84;5055573;28;20047;-92
2022/03/20 09:24:01;;;;;;;26.33;7.78;;;;;;;8.73;100.00;102909.13;5072609;28;20045;-91
2022/03/20 09:26:28;;;;;;;25.17;6.80;;;;;;;8.89;100.00;102913.56;5072533;28;20413;-93
2022/03/20 09:28:55;;;;;;;33.65;8.10;;;;;;;8.39;100.00;102908.88;5073311;28;20059;-92
2022/03/20 09:31:23;;;;;;;30.73;7.30;;;;;;;8.27;100.00;102903.59;5059939;28;20147;-93
2022/03/20 09:33:50;;;;;;;22.60;7.13;;;;;;;8.76;100.00;102906.50;5073237;28;20041;-93
2022/03/20 09:36:18;;;;;;;26.98;6.85;;;;;;;8.74;100.00;102908.25;5072976;28;20104;-93
2022/03/20 09:38:45;;;;;;;25.50;7.25;;;;;;;8.51;100.00;102874.19;5066979;28;20084;-92
2022/03/20 09:41:12;;;;;;;22.67;6.13;;;;;;;8.98;100.00;102891.81;5067149;28;20052;-92
2022/03/20 09:43:40;;;;;;;28.33;6.35;;;;;;;8.96;100.00;102892.66;5070797;28;20074;-93
2022/03/20 09:46:15;;;;;;;32.83;8.43;;;;;;;8.85;100.00;102892.63;5062281;28;20052;-92
2022/03/20 09:48:43;;;;;;;34.40;8.00;;;;;;;8.54;100.00;102890.75;5070394;28;20375;-93
2022/03/20 09:51:10;;;;;;;40.67;9.15;;;;;;;8.88;100.00;102895.25;5064931;28;20052;-93
2022/03/20 09:53:37;;;;;;;30.50;6.55;;;;;;;8.99;100.00;102880.47;5073953;28;20053;-92
2022/03/20 09:56:06;;;;;;;25.60;6.55;;;;;;;9.29;100.00;102882.28;5072444;28;20128;-92
2022/03/20 09:58:33;;;;;;;27.65;6.82;;;;;;;8.91;100.00;102882.22;5073886;28;20397;-93
2022/03/20 10:01:02;;;;;;;28.63;8.35;;;;;;;8.71;100.00;102858.59;5073635;28;20083;-93
2022/03/20 10:03:29;;;;;;;27.98;7.82;;;;;;;8.68;100.00;102869.94;5065319;28;20388;-93
2022/03/20 10:06:17;;;;;;;30.08;7.50;;;;;;;8.78;100.00;102883.88;5054175;28;20403;-93
2022/03/20 10:08:56;;;;;;;35.60;7.38;;;;;;;8.74;100.00;102829.88;5073135;28;20135;-93
2022/03/20 10:11:24;;;;;;;35.15;8.65;;;;;;;8.93;100.00;102846.50;5072114;28;20139;-92
2022/03/20 10:14:20;;;;;;;32.42;7.43;;;;;;;9.09;100.00;102869.19;5073755;28;20041;-92
2022/03/20 10:17:06;;;;;;;29.58;7.53;;;;;;;8.82;100.00;102840.34;5071562;28;20074;-91
2022/03/20 10:19:34;;;;;;;26.35;6.80;;;;;;;9.32;100.00;102856.16;5052088;28;20132;-92
2022/03/20 10:22:04;;;;;;;24.20;7.78;;;;;;;9.27;100.00;102860.50;5067874;28;20402;-93
2022/03/20 10:24:33;;;;;;;19.33;6.57;;;;;;;9.34;100.00;102811.72;5068364;28;20045;-92
2022/03/20 10:27:00;;;;;;;28.98;6.43;;;;;;;9.94;100.00;102844.84;5067686;28;20052;-93
2022/03/20 10:29:29;;;;;;;22.05;7.03;;;;;;;10.21;100.00;102839.56;5072800;28;20053;-92
2022/03/20 10:32:00;;;;;;;26.70;7.55;;;;;;;10.16;100.00;102845.69;5072304;28;20046;-92
2022/03/20 10:34:27;;;;;;;38.90;8.40;;;;;;;9.94;100.00;102816.94;5070188;28;20106;-92
2022/03/20 10:36:54;;;;;;;33.17;7.93;;;;;;;10.30;100.00;102825.56;5071034;28;20052;-92
2022/03/20 10:39:27;;;;;;;32.92;7.85;;;;;;;10.56;100.00;102837.75;5063024;28;20055;-93
2022/03/20 10:41:56;;;;;;;28.30;7.22;;;;;;;10.57;100.00;102832.50;5064030;28;20063;-92
2022/03/20 10:44:33;;;;;;;23.17;6.70;;;;;;;9.82;100.00;102814.34;5070620;28;20048;-92
2022/03/20 10:47:16;;;;;;;28.27;6.72;;;;;;;10.40;100.00;102839.56;5063780;28;20055;-91
2022/03/20 10:50:05;;;;;;;38.58;7.15;;;;;;;10.65;100.00;102821.97;5071529;28;20076;-91
2022/03/20 10:52:35;;;;;;;33.40;7.03;;;;;;;10.79;100.00;102842.88;5066258;28;20080;-91
2022/03/20 10:55:08;;;;;;;26.10;6.45;;;;;;;10.81;100.00;102833.25;5051255;28;20459;-91
2022/03/20 10:57:35;;;;;;;21.70;7.15;;;;;;;10.59;100.00;102817.66;5058791;28;20131;-93
2022/03/20 11:00:11;;;;;;;30.05;7.10;;;;;;;10.25;100.00;102829.94;5070682;28;20048;-92
2022/03/20 11:02:39;;;;;;;33.72;7.80;;;;;;;10.34;100.00;102809.03;5070369;28;20469;-93
2022/03/20 11:05:11;;;;;;;29.38;7.53;;;;;;;10.32;100.00;102805.50;5071678;28;20048;-93
2022/03/20 11:07:38;;;;;;;33.80;7.32;;;;;;;10.40;100.00;102810.75;5071891;28;20614;-89
2022/03/20 11:10:11;;;;;;;38.20;8.35;;;;;;;10.03;100.00;102813.44;5072343;28;20056;-94
2022/03/20 11:12:40;;;;;;;34.38;8.10;;;;;;;10.07;100.00;102796.84;5073979;28;20430;-92
2022/03/20 11:15:09;;;;;;;29.20;6.28;;;;;;;9.48;100.00;102798.66;5074760;28;20052;-91
2022/03/20 11:17:46;;;;;;;29.75;6.65;;;;;;;9.71;100.00;102806.50;5074015;28;20053;-90
2022/03/20 11:20:15;;;;;;;37.75;7.05;;;;;;;9.59;100.00;102786.44;5055330;28;20155;-92
2022/03/20 11:22:55;;;;;;;28.52;6.95;;;;;;;10.05;100.00;102799.44;5068645;28;20095;-91
2022/03/20 11:25:24;;;;;;;27.63;7.80;;;;;;;9.73;100.00;102790.81;5064703;28;20450;-91
2022/03/20 11:27:55;;;;;;;24.23;7.18;;;;;;;10.02;100.00;102783.78;5064659;28;20045;-94
2022/03/20 11:30:27;;;;;;;18.65;5.65;;;;;;;10.43;100.00;102782.78;5065959;28;20048;-95
2022/03/20 11:32:57;;;;;;;22.25;6.55;;;;;;;10.25;100.00;102788.06;5067962;28;20140;-93
2022/03/20 11:35:27;;;;;;;24.60;6.72;;;;;;;9.79;100.00;102781.22;5075402;28;20111;-93
2022/03/20 11:37:58;;;;;;;29.40;6.68;;;;;;;10.54;100.00;102784.50;5062220;28;20083;-92
2022/03/20 11:40:30;;;;;;;24.27;5.95;;;;;;;10.17;100.00;102782.84;5064055;28;20048;-93
2022/03/20 11:43:23;;;;;;;22.10;6.22;;;;;;;9.80;100.00;102782.06;5075599;28;20061;-93
2022/03/20 11:46:22;;;;;;;21.25;5.65;;;;;;;10.62;100.00;102785.31;5074927;28;20053;-93
2022/03/20 11:49:14;;;;;;;19.05;5.65;;;;;;;10.54;100.00;102782.75;5066788;28;20080;-90